createdAt,value
2022-10-30T00:00:46.858Z,2.17
2022-10-30T00:03:15.074Z,1.67
2022-10-30T00:05:43.942Z,2.55
2022-10-30T00:08:12.546Z,1.95
2022-10-30T00:10:39.869Z,2.50
2022-10-30T00:13:06.978Z,2.03
2022-10-30T00:15:34.003Z,2.05
2022-10-30T00:18:00.910Z,1.80
2022-10-30T00:20:28.431Z,1.75
2022-10-30T00:22:55.301Z,2.28
2022-10-30T00:25:22.110Z,2.30
2022-10-30T00:27:48.910Z,1.83
2022-10-30T00:30:16.341Z,1.58
2022-10-30T00:32:43.841Z,1.92
2022-10-30T00:35:11.003Z,2.17
2022-10-30T00:37:39.739Z,2.15
2022-10-30T00:40:07.460Z,1.98
2022-10-30T00:42:33.995Z,2.20
2022-10-30T00:45:01.659Z,2.55
2022-10-30T00:47:37.880Z,1.60
2022-10-30T00:50:37.596Z,2.55
2022-10-30T00:53:11.810Z,2.83
2022-10-30T00:55:43.912Z,2.40
2022-10-30T00:58:15.298Z,2.00
2022-10-30T01:00:46.284Z,2.50
2022-10-30T01:03:13.285Z,2.47
2022-10-30T01:05:41.888Z,2.03
2022-10-30T01:08:08.485Z,2.15
2022-10-30T01:10:35.239Z,1.80
2022-10-30T01:13:02.418Z,2.50
2022-10-30T01:15:35.747Z,2.38
2022-10-30T01:18:27.322Z,2.03
2022-10-30T01:21:00.967Z,2.47
2022-10-30T01:23:52.734Z,1.90
2022-10-30T01:26:31.269Z,2.47
2022-10-30T01:29:22.213Z,2.60
2022-10-30T01:32:08.249Z,2.17
2022-10-30T01:34:51.388Z,2.40
2022-10-30T01:37:45.822Z,2.63
2022-10-30T01:40:16.681Z,2.67
2022-10-30T01:42:49.142Z,2.50
2022-10-30T01:45:56.701Z,2.20
2022-10-30T01:48:36.290Z,2.42
2022-10-30T01:51:19.379Z,2.72
2022-10-30T01:54:23.620Z,2.50
2022-10-30T01:57:08.723Z,2.65
2022-10-30T01:59:56.754Z,2.22
2022-10-30T02:02:24.367Z,2.83
2022-10-30T02:04:51.534Z,2.00
2022-10-30T02:07:18.750Z,2.75
2022-10-30T02:09:51.699Z,2.35
2022-10-30T02:12:19.103Z,2.38
2022-10-30T02:14:50.247Z,2.70
2022-10-30T02:17:18.076Z,2.20
2022-10-30T02:19:44.869Z,2.85
2022-10-30T02:22:12.268Z,2.22
2022-10-30T02:24:38.832Z,1.80
2022-10-30T02:27:06.839Z,2.15
2022-10-30T02:29:33.373Z,2.65
2022-10-30T02:32:00.022Z,2.67
2022-10-30T02:34:26.763Z,2.28
2022-10-30T02:36:53.470Z,2.30
2022-10-30T02:39:21.406Z,2.42
2022-10-30T02:41:48.445Z,2.67
2022-10-30T02:44:15.027Z,2.97
2022-10-30T02:46:41.855Z,2.47
2022-10-30T02:49:08.449Z,2.72
2022-10-30T02:51:35.238Z,2.15
2022-10-30T02:54:01.800Z,2.47
2022-10-30T02:56:29.378Z,2.45
2022-10-30T02:58:56.496Z,2.60
2022-10-30T03:01:23.508Z,2.58
2022-10-30T03:03:54.006Z,2.88
2022-10-30T03:06:23.302Z,2.28
2022-10-30T03:08:50.646Z,2.28
2022-10-30T03:11:19.434Z,2.45
2022-10-30T03:13:47.918Z,2.45
2022-10-30T03:16:16.564Z,2.00
2022-10-30T03:18:44.410Z,2.72
2022-10-30T03:21:14.374Z,2.63
2022-10-30T03:23:41.148Z,2.58
2022-10-30T03:26:08.397Z,2.10
2022-10-30T03:28:49.656Z,2.30
2022-10-30T03:31:18.945Z,2.13
2022-10-30T03:33:47.479Z,2.40
2022-10-30T03:36:15.373Z,2.08
2022-10-30T03:38:42.905Z,2.53
2022-10-30T03:41:12.117Z,2.20
2022-10-30T03:43:38.673Z,2.30
2022-10-30T03:46:05.349Z,2.53
2022-10-30T03:48:33.057Z,2.58
2022-10-30T03:51:00.044Z,2.53
2022-10-30T03:53:28.471Z,2.38
2022-10-30T03:56:00.941Z,2.60
2022-10-30T03:58:36.107Z,2.88
2022-10-30T04:01:04.970Z,2.60
2022-10-30T04:03:34.771Z,2.47
2022-10-30T04:06:01.566Z,2.50
2022-10-30T04:08:28.704Z,3.10
2022-10-30T04:10:57.199Z,2.95
2022-10-30T04:13:23.870Z,2.10
2022-10-30T04:15:56.387Z,2.28
2022-10-30T04:18:25.745Z,2.70
2022-10-30T04:20:53.168Z,2.35
2022-10-30T04:23:21.183Z,2.88
2022-10-30T04:25:48.536Z,2.08
2022-10-30T04:28:15.797Z,3.33
2022-10-30T04:30:42.976Z,1.80
2022-10-30T04:33:13.729Z,2.50
2022-10-30T04:35:41.513Z,2.90
2022-10-30T04:38:14.473Z,3.03
2022-10-30T04:40:43.829Z,2.55
2022-10-30T04:43:13.388Z,2.40
2022-10-30T04:45:41.869Z,2.25
2022-10-30T04:48:15.383Z,2.80
2022-10-30T04:50:43.728Z,2.55
2022-10-30T04:53:18.651Z,2.47
2022-10-30T04:55:47.697Z,2.83
2022-10-30T04:58:14.579Z,2.85
2022-10-30T05:00:43.513Z,3.03
2022-10-30T05:03:21.613Z,3.20
2022-10-30T05:05:56.934Z,3.65
2022-10-30T05:08:23.658Z,2.65
2022-10-30T05:10:50.326Z,2.90
2022-10-30T05:13:17.102Z,2.83
2022-10-30T05:15:43.639Z,3.00
2022-10-30T05:18:10.406Z,3.50
2022-10-30T05:20:37.452Z,2.72
2022-10-30T05:23:04.007Z,2.20
2022-10-30T05:25:31.579Z,2.67
2022-10-30T05:28:01.509Z,2.30
2022-10-30T05:30:32.075Z,2.92
2022-10-30T05:33:00.394Z,2.75
2022-10-30T05:35:29.131Z,3.22
2022-10-30T05:37:55.905Z,2.75
2022-10-30T05:40:22.926Z,2.85
2022-10-30T05:42:49.931Z,2.45
2022-10-30T05:45:18.007Z,2.35
2022-10-30T05:47:55.475Z,2.85
2022-10-30T05:50:23.014Z,2.85
2022-10-30T05:53:10.207Z,2.80
2022-10-30T05:55:38.029Z,2.30
2022-10-30T05:58:10.091Z,2.05
2022-10-30T06:00:40.624Z,3.35
2022-10-30T06:03:11.774Z,2.53
2022-10-30T06:05:41.203Z,2.65
2022-10-30T06:08:08.376Z,1.60
2022-10-30T06:10:35.422Z,2.03
2022-10-30T06:13:10.702Z,2.42
2022-10-30T06:15:48.272Z,2.65
2022-10-30T06:18:15.459Z,2.70
2022-10-30T06:20:45.612Z,2.47
2022-10-30T06:23:30.531Z,2.53
2022-10-30T06:26:07.375Z,2.03
2022-10-30T06:28:37.416Z,2.58
2022-10-30T06:31:04.342Z,2.63
2022-10-30T06:33:32.198Z,2.88
2022-10-30T06:35:59.875Z,2.70
2022-10-30T06:38:26.445Z,2.80
2022-10-30T06:40:54.478Z,2.60
2022-10-30T06:43:23.574Z,2.50
2022-10-30T06:45:58.797Z,2.42
2022-10-30T06:48:26.253Z,2.28
2022-10-30T06:50:59.454Z,2.70
2022-10-30T06:53:26.986Z,2.08
2022-10-30T06:55:59.207Z,2.20
2022-10-30T06:58:46.127Z,2.50
2022-10-30T07:01:32.789Z,2.72
2022-10-30T07:04:20.258Z,2.35
2022-10-30T07:06:46.771Z,2.72
2022-10-30T07:09:13.462Z,3.28
2022-10-30T07:11:45.466Z,2.47
2022-10-30T07:14:22.123Z,3.00
2022-10-30T07:17:04.782Z,3.30
2022-10-30T07:19:31.571Z,2.42
2022-10-30T07:21:58.166Z,2.72
2022-10-30T07:24:24.700Z,2.03
2022-10-30T07:27:09.405Z,2.58
2022-10-30T07:29:40.868Z,2.70
2022-10-30T07:32:32.358Z,2.75
2022-10-30T07:35:14.349Z,2.40
2022-10-30T07:38:06.647Z,2.20
2022-10-30T07:40:44.731Z,3.03
2022-10-30T07:43:30.197Z,1.85
2022-10-30T07:46:15.330Z,2.43
2022-10-30T07:49:06.198Z,2.30
2022-10-30T07:51:42.535Z,2.55
2022-10-30T07:54:09.772Z,3.35
2022-10-30T07:56:37.196Z,2.95
2022-10-30T07:59:22.245Z,2.47
2022-10-30T08:02:16.244Z,3.30
2022-10-30T08:05:13.250Z,2.83
2022-10-30T08:08:00.389Z,2.90
2022-10-30T08:10:27.419Z,2.70
2022-10-30T08:12:54.239Z,3.38
2022-10-30T08:15:20.909Z,2.28
2022-10-30T08:17:49.615Z,2.40
2022-10-30T08:20:19.723Z,3.20
2022-10-30T08:22:53.158Z,2.85
2022-10-30T08:27:55.458Z,2.85
2022-10-30T08:30:26.354Z,2.72
2022-10-30T08:33:00.321Z,2.50
2022-10-30T08:36:07.328Z,2.33
2022-10-30T08:38:34.020Z,2.58
2022-10-30T08:41:21.424Z,2.42
2022-10-30T08:43:51.910Z,2.53
2022-10-30T08:46:18.499Z,2.58
2022-10-30T08:48:45.763Z,2.35
2022-10-30T08:51:12.360Z,2.53
2022-10-30T08:53:44.124Z,2.65
2022-10-30T08:56:14.012Z,2.40
2022-10-30T08:58:56.479Z,2.13
2022-10-30T09:01:24.391Z,2.70
2022-10-30T09:04:23.333Z,2.40
2022-10-30T09:07:28.238Z,2.17
2022-10-30T09:10:30.681Z,2.90
2022-10-30T09:12:58.883Z,2.70
2022-10-30T09:15:26.697Z,2.25
2022-10-30T09:18:03.168Z,2.60
2022-10-30T09:20:30.770Z,2.90
2022-10-30T09:22:58.899Z,2.40
2022-10-30T09:25:26.561Z,2.78
2022-10-30T09:28:06.468Z,2.40
2022-10-30T09:30:52.916Z,2.20
2022-10-30T09:33:19.999Z,2.42
2022-10-30T09:36:07.074Z,2.22
2022-10-30T09:38:33.608Z,2.50
2022-10-30T09:41:15.749Z,2.60
2022-10-30T09:43:58.848Z,2.38
2022-10-30T09:46:40.258Z,2.58
2022-10-30T09:49:52.019Z,2.70
2022-10-30T09:52:34.708Z,2.67
2022-10-30T09:55:29.180Z,3.00
2022-10-30T09:58:06.532Z,3.22
2022-10-30T10:00:39.167Z,3.15
2022-10-30T10:03:38.743Z,2.85
2022-10-30T10:06:34.243Z,2.78
2022-10-30T10:09:17.523Z,2.95
2022-10-30T10:12:24.507Z,3.10
2022-10-30T10:14:54.893Z,3.47
2022-10-30T10:17:35.726Z,2.80
2022-10-30T10:20:05.572Z,2.53
2022-10-30T10:22:51.262Z,2.75
2022-10-30T10:25:21.297Z,2.40
2022-10-30T10:28:01.888Z,1.60
2022-10-30T10:30:39.319Z,2.75
2022-10-30T10:33:40.238Z,2.72
2022-10-30T10:36:48.737Z,2.42
2022-10-30T10:39:29.176Z,2.20
2022-10-30T10:41:55.767Z,2.65
2022-10-30T10:44:34.617Z,2.50
2022-10-30T10:47:32.150Z,3.42
2022-10-30T10:50:27.109Z,2.00
2022-10-30T10:53:02.950Z,1.88
2022-10-30T10:55:36.556Z,2.10
2022-10-30T10:58:28.142Z,2.20
2022-10-30T11:00:57.940Z,2.65
2022-10-30T11:03:32.502Z,2.33
2022-10-30T11:10:29.926Z,2.13
2022-10-30T11:12:58.057Z,2.22
2022-10-30T11:15:38.100Z,3.17
2022-10-30T11:18:07.806Z,2.22
2022-10-30T11:20:59.446Z,1.77
2022-10-30T11:23:40.595Z,1.80
2022-10-30T11:26:22.853Z,1.95
2022-10-30T11:28:58.415Z,2.50
2022-10-30T11:31:34.701Z,2.13
2022-10-30T11:34:14.478Z,3.28
2022-10-30T11:36:41.171Z,2.17
2022-10-30T11:39:17.299Z,2.25
2022-10-30T11:41:55.641Z,2.03
2022-10-30T11:44:30.489Z,1.92
2022-10-30T11:46:58.240Z,2.30
2022-10-30T11:49:40.527Z,2.28
2022-10-30T11:52:09.499Z,2.40
2022-10-30T11:54:40.711Z,2.20
2022-10-30T11:57:33.826Z,2.42
2022-10-30T12:00:05.197Z,1.63
2022-10-30T12:02:43.855Z,1.90
2022-10-30T12:05:25.882Z,2.88
2022-10-30T12:07:54.411Z,2.28
2022-10-30T12:10:25.845Z,2.20
2022-10-30T12:12:52.987Z,2.38
2022-10-30T12:15:24.580Z,2.13
2022-10-30T12:18:02.658Z,3.10
2022-10-30T12:20:29.851Z,1.92
2022-10-30T12:22:58.085Z,1.98
2022-10-30T12:25:29.744Z,1.73
2022-10-30T12:28:03.640Z,2.95
2022-10-30T12:30:37.569Z,2.10
2022-10-30T12:33:13.875Z,2.13
2022-10-30T12:35:50.165Z,1.70
2022-10-30T12:38:41.776Z,2.13
2022-10-30T12:41:32.448Z,1.92
2022-10-30T12:44:09.143Z,2.33
2022-10-30T12:46:52.773Z,2.13
2022-10-30T12:49:40.790Z,1.73
2022-10-30T12:52:13.417Z,2.08
2022-10-30T12:55:06.406Z,1.73
2022-10-30T12:57:41.364Z,2.55
2022-10-30T13:00:16.524Z,1.92
2022-10-30T13:03:15.836Z,2.05
2022-10-30T13:05:53.269Z,1.65
2022-10-30T13:08:27.682Z,2.47
2022-10-30T13:11:19.385Z,2.38
2022-10-30T13:13:50.688Z,1.70
2022-10-30T13:16:31.755Z,2.15
2022-10-30T13:19:03.026Z,2.03
2022-10-30T13:21:49.553Z,2.10
2022-10-30T13:24:42.489Z,2.33
2022-10-30T13:27:18.703Z,1.92
2022-10-30T13:29:51.501Z,1.90
2022-10-30T13:32:40.550Z,2.20
2022-10-30T13:35:29.115Z,1.98
2022-10-30T13:38:04.573Z,2.35
2022-10-30T13:40:50.165Z,2.08
2022-10-30T13:43:28.628Z,2.58
2022-10-30T13:46:07.562Z,1.88
2022-10-30T13:48:58.752Z,2.13
2022-10-30T13:51:53.443Z,2.20
2022-10-30T13:54:29.542Z,2.08
2022-10-30T13:57:03.712Z,2.22
2022-10-30T13:59:47.460Z,1.92
2022-10-30T14:02:25.564Z,2.42
2022-10-30T14:05:37.375Z,2.10
2022-10-30T14:08:10.385Z,1.75
2022-10-30T14:10:45.151Z,2.10
2022-10-30T14:13:26.877Z,2.30
2022-10-30T14:16:07.377Z,1.83
2022-10-30T14:18:45.213Z,2.65
2022-10-30T14:21:31.585Z,2.10
2022-10-30T14:24:11.701Z,1.80
2022-10-30T14:26:41.241Z,2.40
2022-10-30T14:29:32.927Z,2.10
2022-10-30T14:32:19.692Z,1.98
2022-10-30T14:35:25.273Z,2.20
2022-10-30T14:37:51.794Z,1.60
2022-10-30T14:40:44.507Z,1.88
2022-10-30T14:43:55.378Z,2.30
2022-10-30T14:46:29.865Z,1.92
2022-10-30T14:49:31.861Z,2.00
2022-10-30T14:52:17.326Z,2.03
2022-10-30T14:55:21.924Z,2.25
2022-10-30T14:57:52.669Z,1.80
2022-10-30T15:00:22.170Z,1.90
2022-10-30T15:02:58.300Z,2.10
2022-10-30T15:05:27.942Z,2.47
2022-10-30T15:08:13.665Z,1.65
2022-10-30T15:11:00.958Z,2.47
2022-10-30T15:13:27.636Z,2.05
2022-10-30T15:15:59.846Z,2.22
2022-10-30T15:18:30.593Z,1.88
2022-10-30T15:21:04.157Z,1.95
2022-10-30T15:23:34.627Z,2.33
2022-10-30T15:26:09.478Z,2.65
2022-10-30T15:28:38.713Z,2.85
2022-10-30T15:31:08.257Z,2.60
2022-10-30T15:33:38.369Z,2.35
2022-10-30T15:36:05.579Z,2.15
2022-10-30T15:38:32.118Z,3.25
2022-10-30T15:41:02.117Z,3.03
2022-10-30T15:43:32.985Z,3.85
2022-10-30T15:45:59.793Z,2.97
2022-10-30T15:48:33.398Z,3.70
2022-10-30T15:51:02.069Z,3.25
2022-10-30T15:53:50.063Z,3.05
2022-10-30T15:56:26.513Z,4.13
2022-10-30T15:59:00.640Z,3.75
2022-10-30T16:01:32.373Z,3.90
2022-10-30T16:03:59.326Z,3.92
2022-10-30T16:06:35.386Z,3.40
2022-10-30T16:09:03.894Z,3.53
2022-10-30T16:11:30.595Z,3.55
2022-10-30T16:13:57.250Z,3.90
2022-10-30T16:16:30.314Z,2.97
2022-10-30T16:19:04.984Z,3.50
2022-10-30T16:21:32.566Z,4.50
2022-10-30T16:24:04.185Z,5.35
2022-10-30T16:26:37.872Z,5.47
2022-10-30T16:29:21.320Z,4.43
2022-10-30T16:31:52.395Z,4.47
2022-10-30T16:34:39.902Z,4.78
2022-10-30T16:37:14.665Z,5.63
2022-10-30T16:39:42.129Z,4.55
2022-10-30T16:42:19.953Z,4.32
2022-10-30T16:44:46.837Z,5.22
2022-10-30T16:47:16.314Z,4.88
2022-10-30T16:49:49.777Z,3.97
2022-10-30T16:52:17.157Z,5.00
2022-10-30T16:54:49.063Z,4.03
2022-10-30T16:57:22.402Z,4.00
2022-10-30T16:59:51.905Z,2.75
2022-10-30T17:02:23.920Z,2.70
2022-10-30T17:04:57.198Z,3.00
2022-10-30T17:07:26.851Z,3.30
2022-10-30T17:09:56.702Z,2.95
2022-10-30T17:12:28.920Z,3.00
2022-10-30T17:15:01.711Z,2.70
2022-10-30T17:17:35.156Z,3.55
2022-10-30T17:20:12.784Z,3.17
2022-10-30T17:22:39.751Z,2.67
2022-10-30T17:25:34.301Z,2.97
2022-10-30T17:28:00.906Z,3.20
2022-10-30T17:30:34.685Z,3.38
2022-10-30T17:33:04.199Z,3.00
2022-10-30T17:35:30.877Z,3.33
2022-10-30T17:37:59.862Z,3.28
2022-10-30T17:40:29.608Z,4.18
2022-10-30T17:42:56.202Z,3.67
2022-10-30T17:45:22.789Z,3.75
2022-10-30T17:47:49.412Z,3.50
2022-10-30T17:50:15.894Z,3.30
2022-10-30T17:52:42.471Z,3.15
2022-10-30T17:55:22.793Z,4.18
2022-10-30T17:57:49.406Z,3.20
2022-10-30T18:00:16.104Z,3.33
2022-10-30T18:02:42.827Z,4.38
2022-10-30T18:05:14.551Z,4.00
2022-10-30T18:07:41.977Z,2.95
2022-10-30T18:10:09.034Z,3.58
2022-10-30T18:12:35.745Z,2.75
2022-10-30T18:15:34.230Z,3.50
2022-10-30T18:18:01.863Z,3.60
2022-10-30T18:20:29.710Z,2.90
2022-10-30T18:22:57.734Z,4.38
2022-10-30T18:25:27.814Z,3.80
2022-10-30T18:27:54.872Z,3.42
2022-10-30T18:30:23.182Z,3.45
2022-10-30T18:32:50.897Z,3.70
2022-10-30T18:35:37.715Z,3.45
2022-10-30T18:38:08.157Z,3.15
2022-10-30T18:40:35.460Z,3.38
2022-10-30T18:43:02.484Z,3.00
2022-10-30T18:45:37.867Z,2.95
2022-10-30T18:48:05.312Z,3.40
2022-10-30T18:50:31.859Z,3.35
2022-10-30T18:53:00.376Z,3.15
2022-10-30T18:55:38.916Z,3.40
2022-10-30T18:58:07.088Z,3.85
2022-10-30T19:00:51.285Z,3.38
2022-10-30T19:03:22.805Z,4.10
2022-10-30T19:05:51.021Z,4.57
2022-10-30T19:08:17.945Z,4.15
2022-10-30T19:10:46.322Z,3.90
2022-10-30T19:13:22.294Z,3.92
2022-10-30T19:15:50.415Z,4.32
2022-10-30T19:18:18.033Z,3.90
2022-10-30T19:21:03.276Z,3.30
2022-10-30T19:23:30.846Z,4.15
2022-10-30T19:25:57.617Z,3.85
2022-10-30T19:28:25.648Z,3.78
2022-10-30T19:30:54.439Z,3.78
2022-10-30T19:33:22.536Z,4.32
2022-10-30T19:35:55.873Z,4.78
2022-10-30T19:38:23.041Z,3.55
2022-10-30T19:40:49.698Z,4.53
2022-10-30T19:43:16.826Z,3.40
2022-10-30T19:45:43.419Z,4.10
2022-10-30T19:48:17.717Z,3.17
2022-10-30T19:50:47.801Z,3.55
2022-10-30T19:53:14.733Z,3.90
2022-10-30T19:55:42.924Z,3.65
2022-10-30T19:58:15.460Z,3.83
2022-10-30T20:00:44.346Z,3.95
2022-10-30T20:03:13.430Z,4.13
2022-10-30T20:05:43.011Z,4.10
2022-10-30T20:08:13.863Z,4.05
2022-10-30T20:10:43.277Z,4.07
2022-10-30T20:13:11.335Z,3.92
2022-10-30T20:15:38.156Z,4.78
2022-10-30T20:18:13.905Z,4.55
2022-10-30T20:20:45.178Z,4.35
2022-10-30T20:23:11.788Z,4.20
2022-10-30T20:25:38.339Z,3.78
2022-10-30T20:28:19.005Z,4.00
2022-10-30T20:30:45.562Z,3.50
2022-10-30T20:33:13.788Z,3.90
2022-10-30T20:35:42.046Z,4.05
2022-10-30T20:38:16.974Z,3.90
2022-10-30T20:40:44.578Z,3.65
2022-10-30T20:43:15.911Z,3.25
2022-10-30T20:45:42.807Z,3.30
2022-10-30T20:48:09.363Z,3.72
2022-10-30T20:50:36.235Z,3.60
2022-10-30T20:53:02.933Z,3.15
2022-10-30T20:55:29.780Z,4.68
2022-10-30T20:57:56.667Z,4.32
2022-10-30T21:00:23.604Z,4.22
2022-10-30T21:02:50.146Z,4.32
2022-10-30T21:05:42.200Z,4.50
2022-10-30T21:08:04.152Z,3.90
2022-10-30T21:10:32.146Z,5.07
2022-10-30T21:13:02.175Z,5.40
2022-10-30T21:15:32.582Z,4.65
2022-10-30T21:17:59.239Z,5.57
2022-10-30T21:20:26.210Z,4.78
2022-10-30T21:22:52.670Z,4.28
2022-10-30T21:25:19.229Z,3.30
2022-10-30T21:30:12.618Z,5.05
2022-10-30T21:32:39.199Z,5.03
2022-10-30T21:35:06.174Z,4.82
2022-10-30T21:37:36.150Z,4.63
2022-10-30T21:40:03.388Z,4.35
2022-10-30T21:42:29.894Z,5.65
2022-10-30T21:44:56.544Z,5.07
2022-10-30T21:47:22.972Z,5.47
2022-10-30T21:49:49.898Z,5.03
2022-10-30T21:52:16.619Z,4.70
2022-10-30T21:54:43.637Z,4.72
2022-10-30T21:59:41.885Z,3.83
2022-10-30T22:02:13.524Z,5.05
2022-10-30T22:04:40.244Z,4.78
2022-10-30T22:07:06.906Z,4.45
2022-10-30T22:09:33.473Z,4.90
2022-10-30T22:11:59.955Z,4.22
2022-10-30T22:14:26.854Z,4.32
2022-10-30T22:16:53.331Z,4.13
2022-10-30T22:19:19.876Z,4.65
2022-10-30T22:21:46.398Z,4.68
2022-10-30T22:24:13.627Z,5.28
2022-10-30T22:26:40.226Z,4.60
2022-10-30T22:29:06.794Z,4.03
2022-10-30T22:31:34.275Z,4.78
2022-10-30T22:34:01.529Z,4.90
2022-10-30T22:36:30.494Z,4.68
2022-10-30T22:39:03.854Z,4.32
2022-10-30T22:41:34.579Z,4.70
2022-10-30T22:44:07.246Z,4.72
2022-10-30T22:46:33.995Z,3.72
2022-10-30T22:49:00.590Z,4.97
2022-10-30T22:51:27.163Z,4.65
2022-10-30T22:53:59.195Z,5.03
2022-10-30T22:56:28.980Z,4.55
2022-10-30T22:58:55.996Z,4.47
2022-10-30T23:01:23.924Z,4.85
2022-10-30T23:03:52.004Z,4.13
2022-10-30T23:06:19.810Z,4.20
2022-10-30T23:08:46.594Z,3.97
2022-10-30T23:11:13.454Z,3.78
2022-10-30T23:13:40.596Z,4.30
2022-10-30T23:16:10.603Z,4.00
2022-10-30T23:18:37.338Z,3.85
2022-10-30T23:21:07.942Z,4.32
2022-10-30T23:23:37.535Z,4.93
2022-10-30T23:26:10.144Z,4.22
2022-10-30T23:28:36.759Z,4.57
2022-10-30T23:31:05.651Z,4.55
2022-10-30T23:33:32.309Z,4.80
2022-10-30T23:36:00.375Z,4.47
2022-10-30T23:38:27.059Z,4.00
2022-10-30T23:40:53.866Z,3.85
2022-10-30T23:43:20.571Z,3.97
2022-10-30T23:45:47.107Z,4.03
2022-10-30T23:48:13.703Z,4.13
2022-10-30T23:50:40.222Z,3.63
2022-10-30T23:53:06.799Z,3.80
2022-10-30T23:55:34.251Z,3.60
2022-10-30T23:58:01.096Z,3.30
